Time,TemperatureF,DewpointF,PressureIn,WindDirection,WindDirectionDegrees,WindSpeedMPH,WindSpeedGustMPH,Humidity,HourlyPrecipIn,Conditions,Clouds,dailyrainin,SoftwareType,DateUTC
2013-05-29 00:12:00,55.3,51.0,29.39,WNW,285,1.0,1.0,85,0.00,,,0.00,weatherlink.com 1.10,2013-05-29 06:12:00,
2013-05-29 00:27:00,55.3,51.0,29.38,NNE,31,2.0,3.0,85,0.00,,,0.00,weatherlink.com 1.10,2013-05-29 06:27:00,
2013-05-29 00:42:00,55.6,51.0,29.36,West,280,2.0,7.0,85,0.00,,,0.00,weatherlink.com 1.10,2013-05-29 06:42:00,
2013-05-29 00:57:00,55.4,51.0,29.34,NW,309,2.0,7.0,86,0.00,,,0.00,weatherlink.com 1.10,2013-05-29 06:57:00,
2013-05-29 01:12:00,55.3,52.0,29.33,WSW,239,2.0,7.0,87,0.00,,,0.00,weatherlink.com 1.10,2013-05-29 07:12:00,
2013-05-29 01:27:00,55.1,51.0,29.36,WNW,285,3.0,4.0,87,0.00,,,0.00,weatherlink.com 1.10,2013-05-29 07:27:00,
2013-05-29 01:42:00,54.7,51.0,29.37,WNW,285,0.0,3.0,88,0.00,,,0.00,weatherlink.com 1.10,2013-05-29 07:42:00,
2013-05-29 01:57:00,54.9,52.0,29.39,NNE,26,0.0,3.0,89,0.00,,,0.00,weatherlink.com 1.10,2013-05-29 07:57:00,
2013-05-29 02:12:00,55.0,52.0,29.40,SSE,163,1.0,4.0,89,0.00,,,0.00,weatherlink.com 1.10,2013-05-29 08:12:00,
2013-05-29 02:27:00,54.9,52.0,29.39,SE,139,2.0,5.0,90,0.01,,,0.01,weatherlink.com 1.10,2013-05-29 08:27:00,
2013-05-29 02:42:00,54.9,52.0,29.39,SSE,159,2.0,7.0,90,0.02,,,0.02,weatherlink.com 1.10,2013-05-29 08:42:00,
2013-05-29 02:58:00,54.7,52.0,29.41,South,172,2.0,4.0,91,0.03,,,0.03,weatherlink.com 1.10,2013-05-29 08:58:00,
2013-05-29 03:13:00,54.6,52.0,29.40,SSW,201,2.0,4.0,91,0.05,,,0.05,weatherlink.com 1.10,2013-05-29 09:13:00,
2013-05-29 03:28:00,54.5,52.0,29.38,SSE,150,0.0,3.0,91,0.06,,,0.07,weatherlink.com 1.10,2013-05-29 09:28:00,
2013-05-29 03:43:00,54.4,52.0,29.35,SW,232,1.0,4.0,91,0.05,,,0.07,weatherlink.com 1.10,2013-05-29 09:43:00,
2013-05-29 03:58:00,53.9,51.0,29.36,West,266,0.0,3.0,91,0.04,,,0.07,weatherlink.com 1.10,2013-05-29 09:58:00,
2013-05-29 04:13:00,53.5,51.0,29.37,WNW,290,1.0,2.0,92,0.02,,,0.07,weatherlink.com 1.10,2013-05-29 10:13:00,
2013-05-29 04:28:00,53.0,51.0,29.36,West,281,1.0,1.0,93,0.00,,,0.07,weatherlink.com 1.10,2013-05-29 10:28:00,
2013-05-29 04:43:00,52.5,50.0,29.35,WSW,238,1.0,2.0,92,0.00,,,0.07,weatherlink.com 1.10,2013-05-29 10:43:00,
2013-05-29 04:58:00,51.8,50.0,29.35,WSW,245,0.0,2.0,92,0.00,,,0.07,weatherlink.com 1.10,2013-05-29 10:58:00,
2013-05-29 05:13:00,51.1,49.0,29.35,WSW,238,1.0,1.0,93,0.00,,,0.07,weatherlink.com 1.10,2013-05-29 11:13:00,
2013-05-29 05:28:00,-999.0,-99.9,29.34,North,-999,-999.0,-999.0,-999,0.00,,,0.07,weatherlink.com 1.10,2013-05-29 11:28:00,
2013-05-29 05:43:00,-999.0,-99.9,29.35,North,-999,-999.0,-999.0,-999,0.00,,,0.07,weatherlink.com 1.10,2013-05-29 11:43:00,
2013-05-29 05:58:00,-999.0,-99.9,29.35,North,-999,-999.0,-999.0,-999,0.00,,,0.07,weatherlink.com 1.10,2013-05-29 11:58:00,
2013-05-29 06:13:00,-999.0,-99.9,29.35,North,-999,-999.0,-999.0,-999,0.00,,,0.07,weatherlink.com 1.10,2013-05-29 12:13:00,
2013-05-29 06:28:00,-999.0,-99.9,29.34,North,-999,-999.0,-999.0,-999,0.00,,,0.07,weatherlink.com 1.10,2013-05-29 12:28:00,
2013-05-29 06:43:00,50.9,50.0,29.34,South,177,2.0,2.0,96,0.00,,,0.07,weatherlink.com 1.10,2013-05-29 12:43:00,
2013-05-29 06:58:00,51.2,50.0,29.35,SSW,203,2.0,4.0,94,0.00,,,0.07,weatherlink.com 1.10,2013-05-29 12:58:00,
2013-05-29 07:13:00,52.5,51.0,29.36,SSE,160,0.0,2.0,94,0.00,,,0.07,weatherlink.com 1.10,2013-05-29 13:13:00,
2013-05-29 07:28:00,53.5,52.0,29.36,SE,134,0.0,2.0,93,0.00,,,0.07,weatherlink.com 1.10,2013-05-29 13:28:00,
2013-05-29 07:43:00,55.0,53.0,29.37,NW,326,1.0,3.0,91,0.00,,,0.07,weatherlink.com 1.10,2013-05-29 13:43:00,
2013-05-29 07:58:00,55.3,52.0,29.37,SSE,166,0.0,2.0,88,0.00,,,0.07,weatherlink.com 1.10,2013-05-29 13:58:00,
2013-05-29 08:13:00,55.5,52.0,29.37,SSE,167,1.0,3.0,87,0.00,,,0.07,weatherlink.com 1.10,2013-05-29 14:13:00,
2013-05-29 08:28:00,56.7,52.0,29.36,SSE,148,1.0,1.0,85,0.00,,,0.07,weatherlink.com 1.10,2013-05-29 14:28:00,
2013-05-29 08:43:00,57.8,52.0,29.36,ESE,119,3.0,3.0,80,0.00,,,0.07,weatherlink.com 1.10,2013-05-29 14:43:00,
2013-05-29 08:58:00,59.2,52.0,29.35,SSE,156,0.0,2.0,77,0.00,,,0.07,weatherlink.com 1.10,2013-05-29 14:58:00,
2013-05-29 09:14:00,60.7,52.0,29.35,SSW,195,1.0,3.0,72,0.00,,,0.07,weatherlink.com 1.10,2013-05-29 15:14:00,
2013-05-29 09:28:00,60.3,51.0,29.34,SW,214,4.0,7.0,71,0.00,,,0.07,weatherlink.com 1.10,2013-05-29 15:28:00,
2013-05-29 09:44:00,60.3,52.0,29.35,SSW,200,1.0,5.0,73,0.00,,,0.07,weatherlink.com 1.10,2013-05-29 15:44:00,
2013-05-29 09:59:00,60.7,51.0,29.34,West,277,2.0,6.0,71,0.00,,,0.07,weatherlink.com 1.10,2013-05-29 15:59:00,
2013-05-29 10:14:00,60.8,51.0,29.34,SSW,208,2.0,5.0,69,0.00,,,0.07,weatherlink.com 1.10,2013-05-29 16:14:00,
2013-05-29 10:29:00,61.3,51.0,29.33,WSW,252,2.0,3.0,68,0.00,,,0.07,weatherlink.com 1.10,2013-05-29 16:29:00,
2013-05-29 10:44:00,61.9,49.0,29.33,SSW,211,1.0,3.0,64,0.00,,,0.07,weatherlink.com 1.10,2013-05-29 16:44:00,
2013-05-29 10:59:00,63.6,49.0,29.33,SSW,212,1.0,3.0,59,0.00,,,0.07,weatherlink.com 1.10,2013-05-29 16:59:00,
2013-05-29 11:14:00,66.2,48.0,29.32,West,281,1.0,5.0,53,0.00,,,0.07,weatherlink.com 1.10,2013-05-29 17:14:00,
2013-05-29 11:29:00,69.5,47.0,29.32,SW,236,2.0,4.0,45,0.00,,,0.07,weatherlink.com 1.10,2013-05-29 17:29:00,
2013-05-29 11:44:00,70.7,47.0,29.33,SSW,201,4.0,7.0,43,0.00,,,0.07,weatherlink.com 1.10,2013-05-29 17:44:00,
2013-05-29 11:59:00,67.8,46.0,29.33,SSW,208,3.0,5.0,46,0.00,,,0.07,weatherlink.com 1.10,2013-05-29 17:59:00,
2013-05-29 12:14:00,68.0,47.0,29.33,SSW,205,3.0,7.0,47,0.00,,,0.07,weatherlink.com 1.10,2013-05-29 18:14:00,
2013-05-29 12:29:00,68.2,46.0,29.33,WSW,248,5.0,8.0,46,0.00,,,0.07,weatherlink.com 1.10,2013-05-29 18:29:00,
2013-05-29 12:44:00,70.7,47.0,29.33,WSW,240,5.0,8.0,43,0.00,,,0.07,weatherlink.com 1.10,2013-05-29 18:44:00,
2013-05-29 12:59:00,71.9,47.0,29.32,WSW,249,12.0,14.0,41,0.00,,,0.07,weatherlink.com 1.10,2013-05-29 18:59:00,
2013-05-29 13:14:00,69.1,44.0,29.33,SSW,207,6.0,14.0,41,0.00,,,0.07,weatherlink.com 1.10,2013-05-29 19:14:00,
2013-05-29 13:29:00,67.5,46.0,29.33,SW,226,10.0,18.0,46,0.00,,,0.07,weatherlink.com 1.10,2013-05-29 19:29:00,
2013-05-29 13:44:00,65.8,45.0,29.34,SW,234,14.0,20.0,48,0.00,,,0.07,weatherlink.com 1.10,2013-05-29 19:44:00,
2013-05-29 13:59:00,60.4,45.0,29.34,WNW,282,21.0,25.0,58,0.00,,,0.07,weatherlink.com 1.10,2013-05-29 19:59:00,
2013-05-29 14:14:00,58.3,46.0,29.35,SW,214,10.0,22.0,65,0.00,,,0.07,weatherlink.com 1.10,2013-05-29 20:14:00,
2013-05-29 14:29:00,56.5,46.0,29.36,WSW,250,13.0,23.0,68,0.00,,,0.07,weatherlink.com 1.10,2013-05-29 20:29:00,
2013-05-29 14:44:00,54.4,46.0,29.36,West,281,10.0,20.0,74,0.00,,,0.07,weatherlink.com 1.10,2013-05-29 20:44:00,
2013-05-29 14:59:00,52.8,48.0,29.35,WSW,256,4.0,15.0,83,0.01,,,0.08,weatherlink.com 1.10,2013-05-29 20:59:00,
2013-05-29 15:14:00,53.0,49.0,29.35,West,281,8.0,15.0,86,0.03,,,0.10,weatherlink.com 1.10,2013-05-29 21:14:00,
2013-05-29 15:29:00,54.2,49.0,29.34,West,274,4.0,16.0,82,0.03,,,0.10,weatherlink.com 1.10,2013-05-29 21:29:00,
2013-05-29 15:44:00,55.0,48.0,29.33,WNW,298,7.0,17.0,78,0.03,,,0.10,weatherlink.com 1.10,2013-05-29 21:44:00,
2013-05-29 15:59:00,56.9,48.0,29.33,WNW,291,10.0,15.0,73,0.01,,,0.10,weatherlink.com 1.10,2013-05-29 21:59:00,
2013-05-29 16:14:00,58.6,46.0,29.35,WNW,298,11.0,17.0,64,0.00,,,0.10,weatherlink.com 1.10,2013-05-29 22:14:00,
2013-05-29 16:29:00,58.9,47.0,29.33,WNW,285,6.0,13.0,66,0.00,,,0.10,weatherlink.com 1.10,2013-05-29 22:29:00,
2013-05-29 16:44:00,59.3,47.0,29.31,NW,307,16.0,16.0,63,0.00,,,0.10,weatherlink.com 1.10,2013-05-29 22:44:00,
2013-05-29 16:59:00,60.1,46.0,29.30,NW,325,15.0,15.0,61,0.00,,,0.10,weatherlink.com 1.10,2013-05-29 22:59:00,
2013-05-29 17:14:00,62.1,46.0,29.29,WSW,257,4.0,10.0,56,0.00,,,0.10,weatherlink.com 1.10,2013-05-29 23:14:00,
2013-05-29 17:30:00,62.7,45.0,29.31,NW,311,6.0,8.0,53,0.00,,,0.10,weatherlink.com 1.10,2013-05-29 23:30:00,
2013-05-29 17:44:00,61.9,46.0,29.32,WNW,285,4.0,10.0,56,0.00,,,0.10,weatherlink.com 1.10,2013-05-29 23:44:00,
2013-05-29 17:59:00,61.1,46.0,29.32,West,278,3.0,8.0,57,0.00,,,0.10,weatherlink.com 1.10,2013-05-29 23:59:00,
2013-05-29 18:14:00,60.6,45.0,29.33,West,260,2.0,8.0,57,0.00,,,0.10,weatherlink.com 1.10,2013-05-30 00:14:00,
2013-05-29 18:29:00,60.7,45.0,29.34,WSW,255,3.0,6.0,57,0.00,,,0.10,weatherlink.com 1.10,2013-05-30 00:29:00,
2013-05-29 18:44:00,60.7,46.0,29.34,West,276,4.0,7.0,58,0.00,,,0.10,weatherlink.com 1.10,2013-05-30 00:44:00,
2013-05-29 18:59:00,60.2,46.0,29.34,West,274,3.0,8.0,60,0.00,,,0.10,weatherlink.com 1.10,2013-05-30 00:59:00,
2013-05-29 19:14:00,59.1,46.0,29.33,West,271,3.0,5.0,63,0.00,,,0.10,weatherlink.com 1.10,2013-05-30 01:14:00,
2013-05-29 19:29:00,58.3,47.0,29.33,West,264,4.0,7.0,66,0.00,,,0.10,weatherlink.com 1.10,2013-05-30 01:29:00,
2013-05-29 19:44:00,57.8,46.0,29.32,WNW,300,9.0,22.0,64,0.00,,,0.10,weatherlink.com 1.10,2013-05-30 01:44:00,
2013-05-29 19:59:00,57.2,43.0,29.33,NW,317,4.0,12.0,60,0.00,,,0.10,weatherlink.com 1.10,2013-05-30 01:59:00,
2013-05-29 20:14:00,56.5,44.0,29.33,ESE,105,1.0,7.0,63,0.00,,,0.10,weatherlink.com 1.10,2013-05-30 02:14:00,
2013-05-29 20:29:00,55.5,44.0,29.34,NW,317,2.0,4.0,65,0.00,,,0.10,weatherlink.com 1.10,2013-05-30 02:29:00,
2013-05-29 20:44:00,54.1,44.0,29.34,West,262,0.0,3.0,69,0.00,,,0.10,weatherlink.com 1.10,2013-05-30 02:44:00,
2013-05-29 20:59:00,53.0,44.0,29.34,WSW,252,1.0,3.0,72,0.00,,,0.10,weatherlink.com 1.10,2013-05-30 02:59:00,
2013-05-29 21:14:00,52.2,45.0,29.35,West,270,1.0,3.0,75,0.00,,,0.10,weatherlink.com 1.10,2013-05-30 03:14:00,
2013-05-29 21:29:00,51.2,44.0,29.35,West,267,0.0,1.0,77,0.00,,,0.10,weatherlink.com 1.10,2013-05-30 03:29:00,
2013-05-29 21:44:00,50.9,45.0,29.38,SSW,211,3.0,4.0,79,0.00,,,0.10,weatherlink.com 1.10,2013-05-30 03:44:00,
2013-05-29 21:59:00,50.4,44.0,29.39,West,260,0.0,3.0,80,0.00,,,0.10,weatherlink.com 1.10,2013-05-30 03:59:00,
2013-05-29 22:14:00,50.5,45.0,29.39,SW,216,0.0,1.0,80,0.00,,,0.10,weatherlink.com 1.10,2013-05-30 04:14:00,
2013-05-29 22:29:00,50.2,45.0,29.39,WSW,239,0.0,1.0,81,0.00,,,0.10,weatherlink.com 1.10,2013-05-30 04:29:00,
2013-05-29 22:44:00,50.1,44.0,29.38,WSW,252,0.0,2.0,80,0.00,,,0.10,weatherlink.com 1.10,2013-05-30 04:44:00,
2013-05-29 23:00:00,50.6,44.0,29.37,WSW,255,4.0,4.0,78,0.00,,,0.10,weatherlink.com 1.10,2013-05-30 05:00:00,
2013-05-29 23:15:00,51.4,44.0,29.36,WNW,302,2.0,5.0,75,0.00,,,0.10,weatherlink.com 1.10,2013-05-30 05:15:00,
2013-05-29 23:30:00,50.3,44.0,29.36,WSW,256,1.0,3.0,78,0.00,,,0.10,weatherlink.com 1.10,2013-05-30 05:30:00,
2013-05-29 23:45:00,49.8,43.0,29.36,West,260,2.0,2.0,78,0.00,,,0.10,weatherlink.com 1.10,2013-05-30 05:45:00,